Time;durP1;ratioP1;P1;durP2;ratioP2;P2;SDS_P1;SDS_P2;PMS_P1;PMS_P2;Temp;Humidity;BMP_temperature;BMP_pressure;BME280_temperature;BME280_humidity;BME280_pressure;Samples;Min_cycle;Max_cycle;Signal;HPM_P1;HPM_P2
2021/05/03 00:00:34;;;;;;;3.28;1.33;;;;;;;;;;2089408;28;20047;-67
2021/05/03 00:01:34;;;;;;;2.20;1.25;;;;;;;;;;2088921;28;20025;-67
2021/05/03 00:02:35;;;;;;;2.05;1.40;;;;;;;;;;2088452;28;20029;-67
2021/05/03 00:03:35;;;;;;;3.55;1.33;;;;;;;;;;2089016;28;20066;-67
2021/05/03 00:04:36;;;;;;;3.15;1.40;;;;;;;;;;2088985;28;20025;-66
2021/05/03 00:05:36;;;;;;;4.00;1.23;;;;;;;;;;2089078;28;20033;-66
2021/05/03 00:06:36;;;;;;;3.38;1.65;;;;;;;;;;2089270;28;20032;-68
2021/05/03 00:07:37;;;;;;;2.30;1.13;;;;;;;;;;2089558;28;20111;-66
2021/05/03 00:08:37;;;;;;;3.63;1.30;;;;;;;;;;2089645;28;20528;-65
2021/05/03 00:09:37;;;;;;;1.85;1.10;;;;;;;;;;2088956;28;20402;-66
2021/05/03 00:10:38;;;;;;;3.47;1.20;;;;;;;;;;2097091;28;20556;-66
2021/05/03 00:11:38;;;;;;;3.15;1.25;;;;;;;;;;2096869;28;20530;-66
2021/05/03 00:12:38;;;;;;;1.52;1.08;;;;;;;;;;2089465;28;20459;-66
2021/05/03 00:13:39;;;;;;;3.75;1.30;;;;;;;;;;2089246;28;20494;-66
2021/05/03 00:14:39;;;;;;;4.18;1.38;;;;;;;;;;2089361;28;20498;-66
2021/05/03 00:15:40;;;;;;;2.92;1.10;;;;;;;;;;2087978;28;20021;-66
2021/05/03 00:16:40;;;;;;;3.58;1.20;;;;;;;;;;2088679;28;20048;-66
2021/05/03 00:17:41;;;;;;;2.28;1.20;;;;;;;;;;2087312;28;20047;-65
2021/05/03 00:18:41;;;;;;;1.95;1.10;;;;;;;;;;2089249;28;20035;-67
2021/05/03 00:19:42;;;;;;;6.18;1.20;;;;;;;;;;2089003;28;20051;-65
2021/05/03 00:20:43;;;;;;;3.90;1.20;;;;;;;;;;2089462;28;20033;-65
2021/05/03 00:21:44;;;;;;;6.68;1.30;;;;;;;;;;2089108;28;20021;-66
2021/05/03 00:22:44;;;;;;;2.75;1.30;;;;;;;;;;2088629;28;20128;-64
2021/05/03 00:23:44;;;;;;;7.32;1.40;;;;;;;;;;2088506;28;20108;-65
2021/05/03 00:24:45;;;;;;;5.00;1.38;;;;;;;;;;2088955;28;20025;-65
2021/05/03 00:25:45;;;;;;;8.35;1.40;;;;;;;;;;2089136;28;20036;-65
2021/05/03 00:26:46;;;;;;;4.68;1.40;;;;;;;;;;2089398;28;20136;-65
2021/05/03 00:27:46;;;;;;;3.90;1.10;;;;;;;;;;2089061;28;20496;-65
2021/05/03 00:28:46;;;;;;;5.10;1.20;;;;;;;;;;2089466;28;20115;-65
2021/05/03 00:29:46;;;;;;;5.07;1.30;;;;;;;;;;2089208;28;20537;-65
2021/05/03 00:30:47;;;;;;;3.30;1.20;;;;;;;;;;2089382;28;20510;-65
2021/05/03 00:31:47;;;;;;;3.67;1.25;;;;;;;;;;2088688;28;20067;-65
2021/05/03 00:32:47;;;;;;;7.35;1.27;;;;;;;;;;2089273;28;20040;-65
2021/05/03 00:33:48;;;;;;;3.25;1.30;;;;;;;;;;2089171;28;20047;-65
2021/05/03 00:34:48;;;;;;;2.72;1.30;;;;;;;;;;2088965;28;20036;-65
2021/05/03 00:35:48;;;;;;;2.38;1.17;;;;;;;;;;2088936;28;20017;-65
2021/05/03 00:36:49;;;;;;;3.08;1.45;;;;;;;;;;2089146;28;20068;-65
2021/05/03 00:37:50;;;;;;;2.92;1.00;;;;;;;;;;2089217;28;20040;-64
2021/05/03 00:38:50;;;;;;;5.30;1.27;;;;;;;;;;2089104;28;20045;-65
2021/05/03 00:39:50;;;;;;;2.25;1.20;;;;;;;;;;2088916;28;20503;-65
2021/05/03 00:40:51;;;;;;;3.33;1.20;;;;;;;;;;2089147;28;20579;-65
2021/05/03 00:41:51;;;;;;;3.03;1.10;;;;;;;;;;2088459;28;20519;-65
2021/05/03 00:42:51;;;;;;;7.03;1.20;;;;;;;;;;2088520;28;20033;-65
2021/05/03 00:43:52;;;;;;;4.43;1.02;;;;;;;;;;2089131;28;20043;-65
2021/05/03 00:44:52;;;;;;;4.78;1.23;;;;;;;;;;2096514;28;20062;-65
2021/05/03 00:45:53;;;;;;;4.32;1.02;;;;;;;;;;2096775;28;20154;-65
2021/05/03 00:46:55;;;;;;;4.28;1.10;;;;;;;;;;2088908;28;20412;-65
2021/05/03 00:47:56;;;;;;;1.33;0.95;;;;;;;;;;2089305;28;20029;-64
2021/05/03 00:48:56;;;;;;;1.83;1.08;;;;;;;;;;2089049;28;20507;-64
2021/05/03 00:49:57;;;;;;;3.95;1.30;;;;;;;;;;2088974;28;20483;-64
2021/05/03 00:50:57;;;;;;;1.63;0.77;;;;;;;;;;2089108;28;20480;-64
2021/05/03 00:51:57;;;;;;;1.40;0.90;;;;;;;;;;2089017;28;20025;-64
2021/05/03 00:52:58;;;;;;;1.30;1.00;;;;;;;;;;2089077;28;20083;-64
2021/05/03 00:53:58;;;;;;;3.65;1.10;;;;;;;;;;2088755;28;20041;-64
2021/05/03 00:54:58;;;;;;;2.55;1.00;;;;;;;;;;2088961;28;20052;-64
2021/05/03 00:55:59;;;;;;;4.95;1.20;;;;;;;;;;2089063;28;20032;-64
2021/05/03 00:56:59;;;;;;;2.33;1.10;;;;;;;;;;2088932;28;20111;-65
2021/05/03 00:58:00;;;;;;;1.60;1.10;;;;;;;;;;2089169;28;20032;-64
2021/05/03 00:59:00;;;;;;;2.53;1.13;;;;;;;;;;2088939;28;20033;-64
2021/05/03 01:00:01;;;;;;;2.88;1.17;;;;;;;;;;2089199;28;20517;-66
2021/05/03 01:01:02;;;;;;;2.05;1.13;;;;;;;;;;2088981;28;20031;-65
2021/05/03 01:02:03;;;;;;;3.80;1.17;;;;;;;;;;2088915;28;20029;-65
2021/05/03 01:03:03;;;;;;;1.63;0.90;;;;;;;;;;2088994;28;20557;-64
2021/05/03 01:04:04;;;;;;;2.97;1.05;;;;;;;;;;2089222;28;20029;-65
2021/05/03 01:05:05;;;;;;;3.53;1.10;;;;;;;;;;2088655;28;20386;-65
2021/05/03 01:06:05;;;;;;;2.03;1.00;;;;;;;;;;2089106;28;20404;-65
2021/05/03 01:07:06;;;;;;;1.95;1.20;;;;;;;;;;2089042;28;20029;-65
2021/05/03 01:08:06;;;;;;;3.13;1.15;;;;;;;;;;2089049;28;20021;-66
2021/05/03 01:09:06;;;;;;;1.83;0.90;;;;;;;;;;2088789;28;20415;-65
2021/05/03 01:10:07;;;;;;;4.10;1.27;;;;;;;;;;2089028;28;20057;-65
2021/05/03 01:11:07;;;;;;;2.92;1.20;;;;;;;;;;2088927;28;20380;-66
2021/05/03 01:12:08;;;;;;;4.60;1.20;;;;;;;;;;2089002;28;20488;-65
2021/05/03 01:13:08;;;;;;;1.83;1.02;;;;;;;;;;2089038;28;20028;-65
2021/05/03 01:14:09;;;;;;;2.60;1.15;;;;;;;;;;2089051;28;20103;-65
2021/05/03 01:15:10;;;;;;;4.20;1.20;;;;;;;;;;2088980;28;20472;-65
2021/05/03 01:16:10;;;;;;;4.57;1.27;;;;;;;;;;2082054;28;20029;-66
2021/05/03 01:17:11;;;;;;;2.80;1.20;;;;;;;;;;2088297;28;20033;-65
2021/05/03 01:18:11;;;;;;;4.15;1.35;;;;;;;;;;2088456;28;20040;-65
2021/05/03 01:19:11;;;;;;;4.60;1.55;;;;;;;;;;2088760;28;20200;-65
2021/05/03 01:20:13;;;;;;;3.50;1.10;;;;;;;;;;2088921;28;20036;-65
2021/05/03 01:21:23;;;;;;;3.42;1.42;;;;;;;;;;2088969;28;20041;-65
2021/05/03 01:22:23;;;;;;;4.30;1.50;;;;;;;;;;2089561;28;20435;-65
2021/05/03 01:23:24;;;;;;;4.68;1.23;;;;;;;;;;2090384;28;20029;-65
2021/05/03 01:24:24;;;;;;;3.42;1.23;;;;;;;;;;2090630;28;20037;-65
2021/05/03 01:25:28;;;;;;;3.42;1.20;;;;;;;;;;2090581;28;20082;-65
2021/05/03 01:26:28;;;;;;;4.82;1.30;;;;;;;;;;2090671;28;20029;-65
2021/05/03 01:27:29;;;;;;;4.65;1.30;;;;;;;;;;2090713;28;20476;-65
2021/05/03 01:28:29;;;;;;;3.88;1.38;;;;;;;;;;2090584;28;20486;-65
2021/05/03 01:29:29;;;;;;;3.35;1.20;;;;;;;;;;2090708;28;20025;-64
2021/05/03 01:30:31;;;;;;;2.63;1.20;;;;;;;;;;2090727;28;20066;-64
2021/05/03 01:31:31;;;;;;;3.78;1.30;;;;;;;;;;2090373;28;20025;-63
2021/05/03 01:32:32;;;;;;;3.97;1.25;;;;;;;;;;2090532;28;20071;-62
2021/05/03 01:33:33;;;;;;;4.15;1.35;;;;;;;;;;2089802;28;20416;-62
2021/05/03 01:34:33;;;;;;;4.40;1.35;;;;;;;;;;2089887;28;20027;-62
2021/05/03 01:35:34;;;;;;;3.20;1.27;;;;;;;;;;2090555;28;20540;-62
2021/05/03 01:36:37;;;;;;;3.20;1.20;;;;;;;;;;2089761;28;20056;-62
2021/05/03 01:37:37;;;;;;;2.72;1.23;;;;;;;;;;2089985;28;20496;-63
2021/05/03 01:38:38;;;;;;;3.13;1.20;;;;;;;;;;2090298;28;20025;-62
2021/05/03 01:39:38;;;;;;;2.67;1.20;;;;;;;;;;2090577;28;20082;-63
2021/05/03 01:40:40;;;;;;;3.83;1.20;;;;;;;;;;2090506;28;20028;-64
2021/05/03 01:41:41;;;;;;;5.03;1.40;;;;;;;;;;2090538;28;20231;-64
2021/05/03 01:42:41;;;;;;;5.07;1.50;;;;;;;;;;2090516;28;20399;-64
2021/05/03 01:43:42;;;;;;;2.83;1.25;;;;;;;;;;2090533;28;20087;-64
2021/05/03 01:44:42;;;;;;;2.53;1.10;;;;;;;;;;2090570;28;20598;-64
2021/05/03 01:45:44;;;;;;;3.20;1.20;;;;;;;;;;2089965;28;20041;-64
2021/05/03 01:46:45;;;;;;;2.50;1.15;;;;;;;;;;2089807;28;20119;-64
2021/05/03 01:47:45;;;;;;;3.67;1.10;;;;;;;;;;2089810;28;20484;-64
2021/05/03 01:48:46;;;;;;;2.00;1.10;;;;;;;;;;2090593;28;20044;-64
2021/05/03 01:49:46;;;;;;;2.60;1.30;;;;;;;;;;2090158;28;20072;-64
2021/05/03 01:50:47;;;;;;;2.80;1.05;;;;;;;;;;2090562;28;20032;-64
2021/05/03 01:51:47;;;;;;;2.15;1.23;;;;;;;;;;2090420;28;20422;-64
2021/05/03 01:52:49;;;;;;;3.70;1.30;;;;;;;;;;2089952;28;20090;-64
2021/05/03 01:53:49;;;;;;;3.38;1.13;;;;;;;;;;2089447;28;20426;-65
2021/05/03 01:54:50;;;;;;;3.50;1.27;;;;;;;;;;2090487;28;20060;-65
2021/05/03 01:55:55;;;;;;;1.80;1.00;;;;;;;;;;2090388;28;20069;-65
2021/05/03 01:56:55;;;;;;;2.33;1.27;;;;;;;;;;2090501;28;20103;-64
2021/05/03 01:57:55;;;;;;;1.48;1.00;;;;;;;;;;2090313;28;20507;-64
2021/05/03 01:58:56;;;;;;;3.83;1.40;;;;;;;;;;2090428;28;20112;-65
2021/05/03 01:59:57;;;;;;;2.35;1.00;;;;;;;;;;2097984;28;20181;-64
2021/05/03 02:01:00;;;;;;;1.88;1.25;;;;;;;;;;2097908;28;20111;-64
2021/05/03 02:02:01;;;;;;;2.08;1.10;;;;;;;;;;2090361;28;20029;-64
2021/05/03 02:03:01;;;;;;;1.60;0.82;;;;;;;;;;2090276;28;20041;-65
2021/05/03 02:04:03;;;;;;;2.65;0.90;;;;;;;;;;2090363;28;20036;-64
2021/05/03 02:05:04;;;;;;;3.63;0.95;;;;;;;;;;2090218;28;20029;-64
2021/05/03 02:06:04;;;;;;;2.83;1.10;;;;;;;;;;2089540;28;20475;-65
2021/05/03 02:07:04;;;;;;;2.13;0.95;;;;;;;;;;2083108;28;20040;-64
2021/05/03 02:08:05;;;;;;;2.13;1.20;;;;;;;;;;2090001;28;20029;-64
2021/05/03 02:09:09;;;;;;;2.03;1.10;;;;;;;;;;2090300;28;20043;-64
2021/05/03 02:10:10;;;;;;;2.00;1.02;;;;;;;;;;2090272;28;20056;-64
2021/05/03 02:11:10;;;;;;;2.40;1.02;;;;;;;;;;2090258;28;20025;-65
2021/05/03 02:12:11;;;;;;;2.65;1.35;;;;;;;;;;2090337;28;20074;-64
2021/05/03 02:13:11;;;;;;;2.70;1.25;;;;;;;;;;2090282;28;20497;-65
2021/05/03 02:14:12;;;;;;;1.95;1.00;;;;;;;;;;2090317;28;20017;-64
2021/05/03 02:15:12;;;;;;;2.35;1.10;;;;;;;;;;2090011;28;20542;-64
2021/05/03 02:16:13;;;;;;;1.83;0.93;;;;;;;;;;2090145;28;20036;-65
2021/05/03 02:17:13;;;;;;;3.63;1.10;;;;;;;;;;2090267;28;20025;-64
2021/05/03 02:18:14;;;;;;;1.27;1.00;;;;;;;;;;2090248;28;20044;-64
2021/05/03 02:19:15;;;;;;;1.80;0.90;;;;;;;;;;2089917;28;20037;-65
2021/05/03 02:20:16;;;;;;;2.83;1.10;;;;;;;;;;2097857;28;20112;-65
2021/05/03 02:21:16;;;;;;;2.78;0.90;;;;;;;;;;2089478;28;20112;-63
2021/05/03 02:22:16;;;;;;;1.90;1.00;;;;;;;;;;2089663;28;20029;-64
2021/05/03 02:23:17;;;;;;;2.30;1.10;;;;;;;;;;2089934;28;20100;-64
2021/05/03 02:24:17;;;;;;;1.92;1.10;;;;;;;;;;2090179;28;20025;-64
2021/05/03 02:25:18;;;;;;;2.13;1.20;;;;;;;;;;2090336;28;20032;-64
2021/05/03 02:26:18;;;;;;;1.88;1.10;;;;;;;;;;2090198;28;20073;-64
2021/05/03 02:27:18;;;;;;;1.80;0.90;;;;;;;;;;2090179;28;20017;-65
2021/05/03 02:28:19;;;;;;;3.42;0.90;;;;;;;;;;2090210;28;20411;-65
2021/05/03 02:29:19;;;;;;;1.67;0.80;;;;;;;;;;2090140;28;20028;-65
2021/05/03 02:30:20;;;;;;;0.82;0.80;;;;;;;;;;2089946;28;20116;-65
2021/05/03 02:31:20;;;;;;;2.67;0.90;;;;;;;;;;2090066;28;20233;-65
2021/05/03 02:32:20;;;;;;;1.98;0.80;;;;;;;;;;2090214;28;20040;-65
2021/05/03 02:33:21;;;;;;;2.10;0.88;;;;;;;;;;2083322;28;20038;-65
2021/05/03 02:34:21;;;;;;;1.85;1.00;;;;;;;;;;2088971;28;20486;-65
2021/05/03 02:35:23;;;;;;;2.72;0.98;;;;;;;;;;2090077;28;20110;-65
2021/05/03 02:36:24;;;;;;;1.60;0.93;;;;;;;;;;2089931;28;20064;-65
2021/05/03 02:37:25;;;;;;;1.55;0.70;;;;;;;;;;2089761;28;20041;-65
2021/05/03 02:38:29;;;;;;;1.50;0.85;;;;;;;;;;2090146;28;20037;-65
2021/05/03 02:39:29;;;;;;;2.78;1.13;;;;;;;;;;2090000;28;20380;-65
2021/05/03 02:40:31;;;;;;;1.65;0.98;;;;;;;;;;2090205;28;20053;-65
2021/05/03 02:41:32;;;;;;;3.40;1.35;;;;;;;;;;2089234;28;20072;-64
2021/05/03 02:42:32;;;;;;;1.48;0.88;;;;;;;;;;2089547;28;20066;-65
2021/05/03 02:43:32;;;;;;;1.08;0.77;;;;;;;;;;2090062;28;20037;-63
2021/05/03 02:44:33;;;;;;;2.58;1.10;;;;;;;;;;2090125;28;20148;-65
2021/05/03 02:45:33;;;;;;;2.08;0.90;;;;;;;;;;2089617;28;20388;-65
2021/05/03 02:46:34;;;;;;;1.88;1.02;;;;;;;;;;2090075;28;20029;-65
2021/05/03 02:47:34;;;;;;;1.23;0.82;;;;;;;;;;2089985;28;20656;-65
2021/05/03 02:48:34;;;;;;;1.30;0.82;;;;;;;;;;2090208;28;20028;-65
2021/05/03 02:49:35;;;;;;;1.80;0.70;;;;;;;;;;2089023;28;20598;-65
2021/05/03 02:50:36;;;;;;;2.47;0.90;;;;;;;;;;2089598;28;20045;-65
2021/05/03 02:51:37;;;;;;;1.25;0.82;;;;;;;;;;2089231;28;20608;-65
2021/05/03 02:52:37;;;;;;;1.23;0.73;;;;;;;;;;2089212;28;20056;-65
2021/05/03 02:53:38;;;;;;;2.13;0.98;;;;;;;;;;2089918;28;20025;-65
2021/05/03 02:54:38;;;;;;;0.90;0.77;;;;;;;;;;2090050;28;20078;-65
2021/05/03 02:55:38;;;;;;;2.08;0.95;;;;;;;;;;2089853;28;20691;-65
2021/05/03 02:56:39;;;;;;;1.48;0.73;;;;;;;;;;2090086;28;20028;-64
2021/05/03 02:57:39;;;;;;;2.22;1.00;;;;;;;;;;2097501;28;20028;-64
2021/05/03 02:58:40;;;;;;;1.67;1.02;;;;;;;;;;2097513;28;20486;-65
2021/05/03 02:59:40;;;;;;;0.95;0.82;;;;;;;;;;2089601;28;20672;-64
2021/05/03 03:00:40;;;;;;;1.42;0.80;;;;;;;;;;2089981;28;20116;-65
2021/05/03 03:01:41;;;;;;;1.63;0.90;;;;;;;;;;2089925;28;20399;-64
2021/05/03 03:02:41;;;;;;;1.02;0.80;;;;;;;;;;2089926;28;20045;-64
2021/05/03 03:03:41;;;;;;;1.98;1.05;;;;;;;;;;2089785;28;20032;-64
2021/05/03 03:04:42;;;;;;;1.42;0.80;;;;;;;;;;2089728;28;20045;-64
2021/05/03 03:05:42;;;;;;;0.98;0.73;;;;;;;;;;2089891;28;20124;-65
2021/05/03 03:06:43;;;;;;;1.10;0.90;;;;;;;;;;2089162;28;20036;-65
2021/05/03 03:07:43;;;;;;;1.52;0.93;;;;;;;;;;2088926;28;20041;-64
2021/05/03 03:08:43;;;;;;;0.90;0.80;;;;;;;;;;2089903;28;20025;-65
2021/05/03 03:09:43;;;;;;;0.70;0.70;;;;;;;;;;2089857;28;20121;-65
2021/05/03 03:10:44;;;;;;;1.70;0.95;;;;;;;;;;2089892;28;20037;-64
2021/05/03 03:11:47;;;;;;;1.10;0.82;;;;;;;;;;2089901;28;20100;-64
2021/05/03 03:12:48;;;;;;;1.70;0.90;;;;;;;;;;2083498;28;20033;-64
2021/05/03 03:13:48;;;;;;;1.55;0.90;;;;;;;;;;2089833;28;20131;-64
2021/05/03 03:14:48;;;;;;;1.15;0.60;;;;;;;;;;2089651;28;20055;-64
2021/05/03 03:15:49;;;;;;;1.42;0.80;;;;;;;;;;2090015;28;20609;-64
2021/05/03 03:16:49;;;;;;;1.25;0.80;;;;;;;;;;2089693;28;20472;-64
2021/05/03 03:17:50;;;;;;;1.90;0.88;;;;;;;;;;2089813;28;20037;-64
2021/05/03 03:18:52;;;;;;;1.10;0.80;;;;;;;;;;2089812;28;20029;-64
2021/05/03 03:19:53;;;;;;;1.80;0.90;;;;;;;;;;2089625;28;20175;-64
2021/05/03 03:20:53;;;;;;;1.40;0.93;;;;;;;;;;2089768;28;20025;-64
2021/05/03 03:21:53;;;;;;;1.10;0.65;;;;;;;;;;2089529;28;20028;-64
2021/05/03 03:22:54;;;;;;;1.00;0.68;;;;;;;;;;2089797;28;20112;-64
2021/05/03 03:23:54;;;;;;;1.23;0.80;;;;;;;;;;2089773;28;20065;-64
2021/05/03 03:24:54;;;;;;;1.38;0.90;;;;;;;;;;2089685;28;20021;-65
2021/05/03 03:25:55;;;;;;;0.68;0.68;;;;;;;;;;2089743;28;20033;-65
2021/05/03 03:26:55;;;;;;;0.80;0.80;;;;;;;;;;2089763;28;20028;-65
2021/05/03 03:27:56;;;;;;;1.23;0.90;;;;;;;;;;2089690;28;20027;-65
2021/05/03 03:28:56;;;;;;;0.75;0.70;;;;;;;;;;2089694;28;20087;-64
2021/05/03 03:29:57;;;;;;;1.58;0.77;;;;;;;;;;2089558;28;20021;-64
2021/05/03 03:30:57;;;;;;;2.08;0.90;;;;;;;;;;2089646;28;20589;-64
2021/05/03 03:31:57;;;;;;;1.30;0.80;;;;;;;;;;2089779;28;20476;-66
2021/05/03 03:32:58;;;;;;;1.27;0.80;;;;;;;;;;2089694;28;20360;-66
2021/05/03 03:33:58;;;;;;;1.05;0.60;;;;;;;;;;2089674;28;20453;-65
2021/05/03 03:34:58;;;;;;;0.88;0.70;;;;;;;;;;2089536;28;20028;-65
2021/05/03 03:35:59;;;;;;;0.98;0.68;;;;;;;;;;2089442;28;20033;-65
2021/05/03 03:36:59;;;;;;;2.17;1.00;;;;;;;;;;2089362;28;20025;-65
2021/05/03 03:37:59;;;;;;;0.90;0.80;;;;;;;;;;2089618;28;20037;-65
2021/05/03 03:39:00;;;;;;;0.98;0.73;;;;;;;;;;2089562;28;20033;-65
2021/05/03 03:40:01;;;;;;;1.50;0.60;;;;;;;;;;2089045;28;20108;-65
2021/05/03 03:41:01;;;;;;;0.85;0.70;;;;;;;;;;2088978;28;20162;-65
2021/05/03 03:42:02;;;;;;;1.27;0.70;;;;;;;;;;2089664;28;20025;-65
2021/05/03 03:43:02;;;;;;;3.38;0.80;;;;;;;;;;2089692;28;20045;-66
2021/05/03 03:44:03;;;;;;;2.75;0.82;;;;;;;;;;2089316;28;20476;-65
2021/05/03 03:45:05;;;;;;;1.17;0.95;;;;;;;;;;2089389;28;20483;-66
2021/05/03 03:46:05;;;;;;;3.45;0.93;;;;;;;;;;2089726;28;20035;-65
2021/05/03 03:47:06;;;;;;;3.05;0.80;;;;;;;;;;2089558;28;20126;-65
2021/05/03 03:48:06;;;;;;;1.02;0.90;;;;;;;;;;2089532;28;20488;-65
2021/05/03 03:49:07;;;;;;;3.78;1.10;;;;;;;;;;2089526;28;20336;-65
2021/05/03 03:50:07;;;;;;;1.20;0.93;;;;;;;;;;2089479;28;20159;-65
2021/05/03 03:51:08;;;;;;;1.40;0.93;;;;;;;;;;2089535;28;20529;-65
2021/05/03 03:52:08;;;;;;;1.77;0.88;;;;;;;;;;2089158;28;20078;-64
2021/05/03 03:53:08;;;;;;;1.15;1.00;;;;;;;;;;2089478;28;20033;-65
2021/05/03 03:54:09;;;;;;;1.85;0.80;;;;;;;;;;2089530;28;20029;-65
2021/05/03 03:55:11;;;;;;;2.97;0.90;;;;;;;;;;2097051;28;20123;-65
2021/05/03 03:56:12;;;;;;;4.60;1.00;;;;;;;;;;2096861;28;20044;-65
2021/05/03 03:57:13;;;;;;;1.55;0.90;;;;;;;;;;2089446;28;20502;-65
2021/05/03 03:58:13;;;;;;;0.90;0.77;;;;;;;;;;2088741;28;20052;-65
2021/05/03 03:59:14;;;;;;;1.45;0.63;;;;;;;;;;2088543;28;20503;-65
2021/05/03 04:00:15;;;;;;;1.48;0.77;;;;;;;;;;2089380;28;20043;-65
2021/05/03 04:01:15;;;;;;;1.00;0.70;;;;;;;;;;2089592;28;20021;-65
2021/05/03 04:02:16;;;;;;;1.67;0.70;;;;;;;;;;2089420;28;20368;-65
2021/05/03 04:03:16;;;;;;;1.60;0.90;;;;;;;;;;2089479;28;20098;-65
2021/05/03 04:04:24;;;;;;;2.70;1.00;;;;;;;;;;2089342;28;20032;-64
2021/05/03 04:06:55;;;;;;;1.73;0.80;;;;;;;;;;2089120;28;20381;-64
2021/05/03 04:08:14;;;;;;;0.95;0.70;;;;;;;;;;2089353;28;20033;-64
2021/05/03 04:13:39;;;;;;;1.08;0.70;;;;;;;;;;2089333;28;20044;-64
2021/05/03 04:24:52;;;;;;;1.10;0.70;;;;;;;;;;2088051;28;20124;-64
2021/05/03 04:25:52;;;;;;;1.38;0.90;;;;;;;;;;2089231;28;20400;-65
2021/05/03 04:26:53;;;;;;;0.75;0.70;;;;;;;;;;2089424;28;20108;-65
2021/05/03 04:27:53;;;;;;;1.48;0.80;;;;;;;;;;2089202;28;20045;-64
2021/05/03 04:28:54;;;;;;;0.77;0.60;;;;;;;;;;2089114;28;20112;-64
2021/05/03 04:29:54;;;;;;;1.42;0.80;;;;;;;;;;2089098;28;20029;-64
2021/05/03 04:30:55;;;;;;;1.80;0.70;;;;;;;;;;2089301;28;20032;-64
2021/05/03 04:31:55;;;;;;;1.85;0.90;;;;;;;;;;2089173;28;20383;-64
2021/05/03 04:32:55;;;;;;;0.75;0.75;;;;;;;;;;2089287;28;20033;-64
2021/05/03 04:33:56;;;;;;;1.08;0.73;;;;;;;;;;2096608;28;20040;-64
2021/05/03 04:34:56;;;;;;;1.48;0.77;;;;;;;;;;2096795;28;20066;-64
2021/05/03 04:35:58;;;;;;;0.85;0.75;;;;;;;;;;2088849;28;20317;-64
2021/05/03 04:36:59;;;;;;;0.95;0.65;;;;;;;;;;2089347;28;20036;-64
2021/05/03 04:37:59;;;;;;;1.45;0.65;;;;;;;;;;2089047;28;20107;-64
2021/05/03 04:38:59;;;;;;;0.90;0.70;;;;;;;;;;2089160;28;20383;-64
2021/05/03 04:40:00;;;;;;;0.82;0.60;;;;;;;;;;2088518;28;20112;-63
2021/05/03 04:41:00;;;;;;;1.30;0.75;;;;;;;;;;2088538;28;20029;-64
2021/05/03 04:42:00;;;;;;;1.20;0.77;;;;;;;;;;2089186;28;20025;-64
2021/05/03 04:43:01;;;;;;;1.05;0.60;;;;;;;;;;2096613;28;20102;-64
2021/05/03 04:44:01;;;;;;;0.98;0.60;;;;;;;;;;2096590;28;20032;-64
2021/05/03 04:45:01;;;;;;;1.70;0.70;;;;;;;;;;2089154;28;20049;-64
2021/05/03 04:46:02;;;;;;;0.65;0.60;;;;;;;;;;2089142;28;20083;-64
2021/05/03 04:47:02;;;;;;;0.85;0.60;;;;;;;;;;2088492;28;20033;-64
2021/05/03 04:48:03;;;;;;;0.90;0.77;;;;;;;;;;2088558;28;20115;-63
2021/05/03 04:49:03;;;;;;;0.75;0.73;;;;;;;;;;2089066;28;20045;-64
2021/05/03 04:50:05;;;;;;;0.60;0.60;;;;;;;;;;2089050;28;20104;-64
2021/05/03 04:51:06;;;;;;;1.42;0.60;;;;;;;;;;2088719;28;20052;-64
2021/05/03 04:52:06;;;;;;;0.85;0.68;;;;;;;;;;2089178;28;20025;-64
2021/05/03 04:53:06;;;;;;;1.35;0.90;;;;;;;;;;2089122;28;20486;-64
2021/05/03 04:54:07;;;;;;;1.15;0.75;;;;;;;;;;2096793;28;20543;-64
2021/05/03 04:55:08;;;;;;;0.77;0.57;;;;;;;;;;2088321;28;20419;-64
2021/05/03 04:56:08;;;;;;;1.05;0.70;;;;;;;;;;2088441;28;20032;-64
2021/05/03 04:57:09;;;;;;;1.23;0.73;;;;;;;;;;2088311;28;20021;-63
2021/05/03 04:58:09;;;;;;;1.38;0.70;;;;;;;;;;2088944;28;20171;-64
2021/05/03 04:59:09;;;;;;;0.88;0.60;;;;;;;;;;2088931;28;20431;-64
2021/05/03 05:00:10;;;;;;;0.95;0.68;;;;;;;;;;2089145;28;20107;-64
2021/05/03 05:01:10;;;;;;;1.17;0.80;;;;;;;;;;2089020;28;20037;-64
2021/05/03 05:02:10;;;;;;;1.00;0.70;;;;;;;;;;2089152;28;20047;-64
2021/05/03 05:03:11;;;;;;;0.95;0.50;;;;;;;;;;2089012;28;20048;-64
2021/05/03 05:04:11;;;;;;;1.70;0.80;;;;;;;;;;2089042;28;20400;-64
2021/05/03 05:05:12;;;;;;;1.58;0.80;;;;;;;;;;2088213;28;20788;-64
2021/05/03 05:06:13;;;;;;;1.23;0.80;;;;;;;;;;2088133;28;20041;-64
2021/05/03 05:07:13;;;;;;;0.73;0.50;;;;;;;;;;2088432;28;20144;-64
2021/05/03 05:08:14;;;;;;;1.33;0.85;;;;;;;;;;2089087;28;20120;-63
2021/05/03 05:09:14;;;;;;;0.60;0.60;;;;;;;;;;2088933;28;20029;-64
2021/05/03 05:10:14;;;;;;;0.77;0.50;;;;;;;;;;2089146;28;20112;-64
2021/05/03 05:11:15;;;;;;;0.90;0.80;;;;;;;;;;2088965;28;20050;-64
2021/05/03 05:12:16;;;;;;;1.00;0.70;;;;;;;;;;2089164;28;20025;-63
2021/05/03 05:13:16;;;;;;;0.80;0.80;;;;;;;;;;2088679;28;20476;-64
2021/05/03 05:14:17;;;;;;;0.70;0.47;;;;;;;;;;2089052;28;20468;-64
2021/05/03 05:15:18;;;;;;;0.82;0.60;;;;;;;;;;2088977;28;20064;-64
2021/05/03 05:16:18;;;;;;;0.57;0.57;;;;;;;;;;2089090;28;20029;-64
2021/05/03 05:17:18;;;;;;;0.43;0.43;;;;;;;;;;2088883;28;20036;-64
2021/05/03 05:18:19;;;;;;;0.88;0.70;;;;;;;;;;2089081;28;20025;-64
2021/05/03 05:19:19;;;;;;;1.30;0.70;;;;;;;;;;2088665;28;20368;-64
2021/05/03 05:20:21;;;;;;;0.82;0.60;;;;;;;;;;2088750;28;20017;-64
2021/05/03 05:21:21;;;;;;;0.90;0.80;;;;;;;;;;2088649;28;20099;-64
2021/05/03 05:22:21;;;;;;;0.98;0.70;;;;;;;;;;2088944;28;20057;-64
2021/05/03 05:23:22;;;;;;;0.60;0.60;;;;;;;;;;2089069;28;20077;-65
2021/05/03 05:24:22;;;;;;;0.65;0.60;;;;;;;;;;2089015;28;20029;-65
2021/05/03 05:25:22;;;;;;;0.50;0.50;;;;;;;;;;2088897;28;20404;-65
2021/05/03 05:26:23;;;;;;;0.77;0.68;;;;;;;;;;2089006;28;20434;-65
2021/05/03 05:27:23;;;;;;;1.23;0.65;;;;;;;;;;2088966;28;20032;-65
2021/05/03 05:28:23;;;;;;;1.38;0.60;;;;;;;;;;2088741;28;20124;-65
2021/05/03 05:29:24;;;;;;;0.77;0.70;;;;;;;;;;2096360;28;20035;-65
2021/05/03 05:30:25;;;;;;;0.75;0.70;;;;;;;;;;2096676;28;20070;-65
2021/05/03 05:31:25;;;;;;;0.70;0.60;;;;;;;;;;2088768;28;20098;-65
2021/05/03 05:32:26;;;;;;;0.80;0.55;;;;;;;;;;2088930;28;20021;-65
2021/05/03 05:33:26;;;;;;;0.60;0.60;;;;;;;;;;2088849;28;20434;-65
2021/05/03 05:34:27;;;;;;;0.95;0.80;;;;;;;;;;2088710;28;20043;-65
2021/05/03 05:35:27;;;;;;;0.40;0.40;;;;;;;;;;2088635;28;20040;-65
2021/05/03 05:36:28;;;;;;;0.60;0.60;;;;;;;;;;2088774;28;20045;-65
2021/05/03 05:37:29;;;;;;;1.13;0.57;;;;;;;;;;2096505;28;20067;-65
2021/05/03 05:38:29;;;;;;;0.68;0.52;;;;;;;;;;2096457;28;20028;-65
2021/05/03 05:39:29;;;;;;;0.82;0.60;;;;;;;;;;2088943;28;20040;-65
2021/05/03 05:40:29;;;;;;;0.73;0.55;;;;;;;;;;2088890;28;20475;-65
2021/05/03 05:41:30;;;;;;;1.20;0.73;;;;;;;;;;2089000;28;20121;-65
2021/05/03 05:42:30;;;;;;;0.82;0.50;;;;;;;;;;2096197;28;20570;-65
2021/05/03 05:43:30;;;;;;;1.10;0.50;;;;;;;;;;2096551;28;20068;-65
2021/05/03 05:44:31;;;;;;;0.75;0.60;;;;;;;;;;2088823;28;20036;-65
2021/05/03 05:45:31;;;;;;;0.98;0.75;;;;;;;;;;2088863;28;20112;-65
2021/05/03 05:46:33;;;;;;;1.08;0.60;;;;;;;;;;2088935;28;20033;-65
2021/05/03 05:47:33;;;;;;;0.95;0.60;;;;;;;;;;2088851;28;20036;-65
2021/05/03 05:48:35;;;;;;;1.58;0.70;;;;;;;;;;2088940;28;20393;-65
2021/05/03 05:49:35;;;;;;;0.55;0.55;;;;;;;;;;2089962;28;20044;-65
2021/05/03 05:50:36;;;;;;;0.85;0.60;;;;;;;;;;2087877;28;20558;-65
2021/05/03 05:51:37;;;;;;;0.50;0.50;;;;;;;;;;2079947;28;20045;-65
2021/05/03 05:52:38;;;;;;;0.77;0.57;;;;;;;;;;2088194;28;20032;-65
2021/05/03 05:53:38;;;;;;;0.60;0.60;;;;;;;;;;2088837;28;20108;-65
2021/05/03 05:54:39;;;;;;;0.80;0.70;;;;;;;;;;2088907;28;20115;-65
2021/05/03 05:55:40;;;;;;;0.63;0.57;;;;;;;;;;2088802;28;20064;-65
2021/05/03 05:56:40;;;;;;;0.57;0.35;;;;;;;;;;2088862;28;20379;-65
2021/05/03 05:57:41;;;;;;;0.73;0.60;;;;;;;;;;2088390;28;20029;-65
2021/05/03 05:58:41;;;;;;;0.40;0.40;;;;;;;;;;2088871;28;20545;-65
2021/05/03 05:59:41;;;;;;;0.60;0.60;;;;;;;;;;2088660;28;20535;-65
2021/05/03 06:00:42;;;;;;;2.72;0.80;;;;;;;;;;2088956;28;20033;-65
2021/05/03 06:01:42;;;;;;;1.05;0.70;;;;;;;;;;2088666;28;20052;-65
2021/05/03 06:02:42;;;;;;;0.88;0.60;;;;;;;;;;2088175;28;20040;-65
2021/05/03 06:03:43;;;;;;;1.58;0.80;;;;;;;;;;2087993;28;20033;-65
2021/05/03 06:04:43;;;;;;;0.60;0.57;;;;;;;;;;2087696;28;20067;-65
2021/05/03 06:05:43;;;;;;;1.02;0.52;;;;;;;;;;2088683;28;20060;-65
2021/05/03 06:06:44;;;;;;;0.68;0.60;;;;;;;;;;2088961;28;20116;-65
2021/05/03 06:07:44;;;;;;;0.90;0.80;;;;;;;;;;2088040;28;20434;-65
2021/05/03 06:08:45;;;;;;;0.55;0.50;;;;;;;;;;2089323;28;20424;-66
2021/05/03 06:09:45;;;;;;;0.85;0.50;;;;;;;;;;2087501;28;20464;-67
2021/05/03 06:10:46;;;;;;;0.90;0.60;;;;;;;;;;2090299;28;20047;-66
2021/05/03 06:11:46;;;;;;;0.68;0.57;;;;;;;;;;2090234;28;20028;-66
2021/05/03 06:12:46;;;;;;;0.40;0.40;;;;;;;;;;2097753;28;20032;-67
2021/05/03 06:13:47;;;;;;;0.55;0.50;;;;;;;;;;2097835;28;20033;-65
2021/05/03 06:14:47;;;;;;;0.70;0.65;;;;;;;;;;2090428;28;20044;-65
2021/05/03 06:15:47;;;;;;;1.88;0.60;;;;;;;;;;2090029;28;20510;-64
2021/05/03 06:16:47;;;;;;;0.75;0.75;;;;;;;;;;2090408;28;20037;-65
2021/05/03 06:17:48;;;;;;;0.80;0.50;;;;;;;;;;2090198;28;20098;-64
2021/05/03 06:18:48;;;;;;;0.80;0.60;;;;;;;;;;2090306;28;20108;-65
2021/05/03 06:19:48;;;;;;;0.75;0.60;;;;;;;;;;2089562;28;20079;-65